Time;durP1;ratioP1;P1;durP2;ratioP2;P2;SDS_P1;SDS_P2;PMS_P1;PMS_P2;Temp;Humidity;BMP_temperature;BMP_pressure;BME280_temperature;BME280_humidity;BME280_pressure;Samples;Min_cycle;Max_cycle;Signal;HPM_P1;HPM_P2
2022/01/09 00:02:04;;;;;;;7.25;4.00;;;;;;;2.22;76.32;100752.80;1774984;80;25748;-65
2022/01/09 00:04:31;;;;;;;5.60;3.40;;;;;;;2.25;76.24;100748.17;1762177;81;25804;-65
2022/01/09 00:06:59;;;;;;;3.72;3.10;;;;;;;2.28;76.31;100750.67;1773864;79;25801;-64
2022/01/09 00:09:28;;;;;;;7.08;3.65;;;;;;;2.28;76.34;100736.55;1803088;79;27495;-65
2022/01/09 00:11:56;;;;;;;3.80;3.40;;;;;;;2.23;76.58;100732.83;1764841;79;25953;-65
2022/01/09 00:14:26;;;;;;;5.12;3.20;;;;;;;2.23;77.05;100729.30;1789161;79;25769;-64
2022/01/09 00:16:53;;;;;;;4.72;3.12;;;;;;;2.16;77.01;100729.64;1779576;79;25862;-64
2022/01/09 00:19:20;;;;;;;5.03;2.37;;;;;;;2.19;77.34;100735.24;1761809;81;25697;-64
2022/01/09 00:21:49;;;;;;;4.50;3.02;;;;;;;2.10;77.51;100727.33;1764161;79;27470;-65
2022/01/09 00:24:17;;;;;;;3.05;2.77;;;;;;;2.07;77.51;100734.11;1777789;79;26876;-64
2022/01/09 00:26:44;;;;;;;5.35;3.22;;;;;;;2.07;77.61;100722.17;1767901;79;25804;-64
2022/01/09 00:29:11;;;;;;;5.58;3.00;;;;;;;2.07;77.54;100727.48;1762043;79;25783;-65
2022/01/09 00:31:40;;;;;;;4.45;2.95;;;;;;;2.08;77.57;100727.88;1761748;81;27305;-65
2022/01/09 00:34:08;;;;;;;3.17;2.87;;;;;;;2.14;77.71;100722.22;1761444;79;28259;-65
2022/01/09 00:36:35;;;;;;;6.50;3.17;;;;;;;2.15;77.55;100720.45;1782570;79;25840;-64
2022/01/09 00:39:03;;;;;;;5.87;2.80;;;;;;;2.11;77.71;100714.41;1799220;79;25777;-64
2022/01/09 00:41:30;;;;;;;3.52;3.12;;;;;;;2.10;77.54;100715.38;1799489;79;25776;-65
2022/01/09 00:44:00;;;;;;;4.85;3.08;;;;;;;2.11;77.93;100717.55;1761123;79;25960;-65
2022/01/09 00:46:27;;;;;;;3.87;3.35;;;;;;;2.15;77.68;100705.36;1770277;79;27490;-64
2022/01/09 00:48:54;;;;;;;3.12;2.75;;;;;;;2.14;77.75;100708.11;1772563;80;25810;-65
2022/01/09 00:51:23;;;;;;;5.97;3.10;;;;;;;2.12;77.73;100710.83;1759692;80;25784;-64
2022/01/09 00:53:50;;;;;;;4.83;2.95;;;;;;;2.11;78.05;100693.67;1781264;79;25800;-64
2022/01/09 00:56:17;;;;;;;5.67;3.33;;;;;;;2.12;78.01;100696.72;1781079;79;25731;-65
2022/01/09 00:58:44;;;;;;;3.35;2.60;;;;;;;2.07;78.13;100686.80;1793574;78;27470;-64
2022/01/09 01:01:10;;;;;;;4.55;3.60;;;;;;;2.05;78.12;100679.42;1789567;78;25846;-64
2022/01/09 01:03:37;;;;;;;5.33;3.27;;;;;;;2.05;78.33;100680.27;1798380;78;25709;-64
2022/01/09 01:06:04;;;;;;;5.53;3.10;;;;;;;2.03;78.24;100674.17;1808947;78;25789;-64
2022/01/09 01:08:31;;;;;;;4.30;3.30;;;;;;;2.01;78.47;100669.45;1783976;80;25755;-64
2022/01/09 01:10:58;;;;;;;4.10;2.87;;;;;;;2.00;78.39;100669.05;1781564;80;28204;-63
2022/01/09 01:13:24;;;;;;;8.10;3.20;;;;;;;2.00;78.40;100663.75;1787614;80;25726;-64
2022/01/09 01:15:55;;;;;;;5.83;3.20;;;;;;;2.01;78.37;100653.52;1787637;80;25501;-64
2022/01/09 01:18:22;;;;;;;4.40;2.70;;;;;;;2.00;78.56;100650.00;1787385;80;25814;-63
2022/01/09 01:20:49;;;;;;;6.22;3.33;;;;;;;1.96;78.62;100649.80;1787256;80;25747;-66
2022/01/09 01:23:16;;;;;;;6.03;3.12;;;;;;;1.95;78.81;100632.61;1792470;78;29719;-65
2022/01/09 01:25:50;;;;;;;4.47;3.08;;;;;;;1.97;78.85;100631.58;1817117;78;25719;-65
2022/01/09 01:28:12;;;;;;;5.33;3.55;;;;;;;1.98;78.84;100629.80;1816325;78;25721;-66
2022/01/09 01:30:38;;;;;;;7.00;3.67;;;;;;;1.98;78.70;100613.88;1804170;78;25776;-65
2022/01/09 01:33:07;;;;;;;5.42;3.00;;;;;;;1.96;78.84;100607.80;1800245;78;25785;-64
2022/01/09 01:35:34;;;;;;;7.70;4.50;;;;;;;1.96;78.95;100606.02;1817191;78;27463;-65
2022/01/09 01:38:01;;;;;;;5.03;3.22;;;;;;;1.97;78.72;100606.37;1804222;78;26449;-65
2022/01/09 01:40:28;;;;;;;5.28;3.87;;;;;;;1.98;78.41;100605.92;1787574;78;25727;-65
2022/01/09 01:42:55;;;;;;;5.37;3.30;;;;;;;2.02;78.30;100604.34;1784348;78;25794;-63
2022/01/09 01:45:21;;;;;;;5.45;3.22;;;;;;;2.08;78.39;100602.27;1813443;78;25781;-65
2022/01/09 01:47:48;;;;;;;5.62;3.50;;;;;;;2.14;78.17;100597.97;1807270;78;28015;-64
2022/01/09 01:50:17;;;;;;;4.72;3.52;;;;;;;2.17;77.99;100596.45;1817333;78;25733;-65
2022/01/09 01:52:48;;;;;;;3.85;2.75;;;;;;;2.18;78.08;100597.71;1795663;78;25746;-65
2022/01/09 01:55:17;;;;;;;5.33;3.50;;;;;;;2.21;77.89;100585.19;1805610;78;26677;-65
2022/01/09 01:57:47;;;;;;;5.83;3.42;;;;;;;2.21;77.92;100578.09;1805923;78;25864;-64
2022/01/09 02:00:17;;;;;;;4.55;2.95;;;;;;;2.23;77.79;100571.37;1795802;78;27460;-65
2022/01/09 02:02:46;;;;;;;6.47;3.92;;;;;;;2.22;77.72;100565.22;1803113;78;25733;-65
2022/01/09 02:05:13;;;;;;;7.17;3.52;;;;;;;2.24;77.80;100559.33;1795754;78;25747;-65
2022/01/09 02:07:41;;;;;;;4.85;3.02;;;;;;;2.24;77.66;100551.36;1789131;78;26442;-65
2022/01/09 02:10:10;;;;;;;4.37;3.40;;;;;;;2.24;77.67;100549.19;1791640;78;25731;-65
2022/01/09 02:12:40;;;;;;;4.22;3.33;;;;;;;2.27;77.67;100553.84;1786468;80;28111;-65
2022/01/09 02:15:42;;;;;;;6.50;4.08;;;;;;;2.35;77.67;100550.77;1781473;80;25715;-65
2022/01/09 02:18:11;;;;;;;5.10;3.70;;;;;;;2.40;77.13;100542.05;1781491;80;25699;-66
2022/01/09 02:20:42;;;;;;;6.87;3.52;;;;;;;2.37;76.71;100534.73;1781709;80;25770;-65
2022/01/09 02:23:15;;;;;;;5.05;3.67;;;;;;;2.31;76.83;100538.59;1785852;78;25786;-65
2022/01/09 02:25:44;;;;;;;5.35;3.58;;;;;;;2.30;76.65;100534.23;1787348;80;27552;-65
2022/01/09 02:28:14;;;;;;;10.28;5.58;;;;;;;2.26;76.48;100527.41;1787790;78;25831;-64
2022/01/09 02:30:43;;;;;;;6.45;4.05;;;;;;;2.20;76.66;100525.95;1787452;80;25806;-65
2022/01/09 02:33:16;;;;;;;9.48;4.05;;;;;;;2.21;76.71;100520.16;1808580;78;25845;-65
2022/01/09 02:35:47;;;;;;;5.70;4.07;;;;;;;2.24;76.59;100520.00;1817554;78;25789;-64
2022/01/09 02:38:13;;;;;;;6.03;3.87;;;;;;;2.22;76.89;100513.91;1811323;78;27488;-65
2022/01/09 02:40:40;;;;;;;5.03;3.70;;;;;;;2.24;76.97;100512.03;1787285;80;25790;-64
2022/01/09 02:43:07;;;;;;;4.30;3.40;;;;;;;2.17;77.23;100504.44;1793738;78;25695;-64
2022/01/09 02:45:35;;;;;;;6.08;3.58;;;;;;;2.19;77.30;100506.53;1771964;78;25777;-65
2022/01/09 02:48:04;;;;;;;6.10;4.10;;;;;;;2.22;77.61;100504.63;1789360;78;25518;-64
2022/01/09 02:50:39;;;;;;;5.92;3.85;;;;;;;2.23;77.40;100501.91;1787530;80;27496;-64
2022/01/09 02:53:13;;;;;;;6.20;3.80;;;;;;;2.26;77.41;100495.06;1788307;78;25847;-64
2022/01/09 02:55:31;;;;;;;7.53;3.70;;;;;;;2.28;77.52;100496.33;1806829;78;25769;-64
2022/01/09 02:58:00;;;;;;;8.35;3.55;;;;;;;2.28;77.48;100492.34;1816869;78;25837;-65
2022/01/09 03:00:31;;;;;;;7.92;3.80;;;;;;;2.31;77.39;100490.36;1801000;78;25694;-64
2022/01/09 03:02:59;;;;;;;6.25;3.40;;;;;;;2.34;77.40;100487.99;1794081;79;27514;-65
2022/01/09 03:05:28;;;;;;;7.03;3.92;;;;;;;2.35;77.38;100481.74;1763974;79;25959;-64
2022/01/09 03:07:55;;;;;;;5.65;3.67;;;;;;;2.34;77.23;100476.05;1794968;79;25803;-64
2022/01/09 03:10:23;;;;;;;5.60;3.98;;;;;;;2.35;77.26;100484.40;1765521;79;25822;-64
2022/01/09 03:12:52;;;;;;;6.90;3.67;;;;;;;2.40;77.40;100473.02;1761619;81;25782;-64
2022/01/09 03:15:21;;;;;;;7.08;3.58;;;;;;;2.44;77.27;100463.07;1768825;79;27450;-64
2022/01/09 03:17:48;;;;;;;5.53;3.70;;;;;;;2.46;76.90;100455.88;1762650;79;25720;-64
2022/01/09 03:20:20;;;;;;;5.67;3.85;;;;;;;2.44;76.76;100459.09;1761516;81;25794;-64
2022/01/09 03:22:47;;;;;;;7.47;3.42;;;;;;;2.42;76.71;100462.33;1775428;79;25807;-65
2022/01/09 03:25:15;;;;;;;7.40;4.00;;;;;;;2.40;76.51;100459.75;1761830;79;25749;-63
2022/01/09 03:27:45;;;;;;;6.92;4.08;;;;;;;2.37;76.52;100461.73;1761784;79;27506;-65
2022/01/09 03:30:18;;;;;;;9.10;4.70;;;;;;;2.34;76.60;100471.58;1762094;79;25796;-66
2022/01/09 03:32:46;;;;;;;5.78;3.92;;;;;;;2.29;76.69;100471.47;1783118;79;25713;-65
2022/01/09 03:35:18;;;;;;;8.35;4.42;;;;;;;2.29;76.69;100467.03;1798814;79;25827;-65
2022/01/09 03:37:48;;;;;;;13.75;5.45;;;;;;;2.20;77.03;100462.26;1796303;79;25627;-64
2022/01/09 03:40:22;;;;;;;11.93;4.33;;;;;;;2.18;76.74;100457.05;1799431;79;27445;-65
2022/01/09 03:42:54;;;;;;;7.37;4.22;;;;;;;2.17;77.19;100455.80;1778699;79;33054;-65
2022/01/09 03:45:26;;;;;;;7.55;4.20;;;;;;;2.14;77.36;100455.51;1791933;79;25769;-65
2022/01/09 03:47:54;;;;;;;6.15;3.72;;;;;;;2.12;77.69;100456.06;1788678;79;26416;-65
2022/01/09 03:50:22;;;;;;;6.15;3.92;;;;;;;2.11;77.66;100464.13;1761832;81;25775;-65
2022/01/09 03:52:52;;;;;;;12.20;5.08;;;;;;;2.13;78.05;100459.59;1783272;79;27439;-64
2022/01/09 03:55:23;;;;;;;6.25;3.85;;;;;;;2.16;77.72;100449.64;1790498;79;25504;-65
2022/01/09 03:57:51;;;;;;;5.90;4.03;;;;;;;2.19;77.83;100444.63;1774148;80;25749;-65
2022/01/09 04:00:24;;;;;;;7.42;4.22;;;;;;;2.22;77.71;100439.14;1778067;79;25867;-65
2022/01/09 04:02:53;;;;;;;7.28;4.15;;;;;;;2.23;77.86;100439.53;1786835;79;25712;-65
2022/01/09 04:05:24;;;;;;;6.37;3.87;;;;;;;2.26;78.05;100435.83;1802008;79;27461;-64
2022/01/09 04:07:51;;;;;;;7.65;3.58;;;;;;;2.26;77.95;100435.83;1789682;79;25752;-62
2022/01/09 04:10:20;;;;;;;10.53;4.22;;;;;;;2.27;77.86;100435.73;1748781;79;25793;-65
2022/01/09 04:12:49;;;;;;;6.33;4.20;;;;;;;2.29;77.84;100427.66;1771493;79;25809;-65
2022/01/09 04:15:19;;;;;;;9.45;4.20;;;;;;;2.31;77.63;100424.45;1774309;79;25775;-65
2022/01/09 04:17:52;;;;;;;7.17;4.30;;;;;;;2.30;77.75;100429.38;1778740;79;27559;-65
2022/01/09 04:20:28;;;;;;;10.38;5.08;;;;;;;2.30;77.75;100432.91;1795505;79;25826;-64
2022/01/09 04:22:56;;;;;;;6.87;3.80;;;;;;;2.29;77.75;100431.65;1792875;79;25850;-64
2022/01/09 04:25:24;;;;;;;7.62;4.70;;;;;;;2.30;77.74;100429.38;1780780;79;26603;-65
2022/01/09 04:27:54;;;;;;;8.53;4.40;;;;;;;2.29;77.69;100426.34;1786025;79;26276;-64
2022/01/09 04:30:23;;;;;;;8.75;4.35;;;;;;;2.27;77.72;100424.27;1781025;79;27538;-64
2022/01/09 04:32:49;;;;;;;8.78;4.78;;;;;;;2.27;77.81;100421.62;1792186;79;25759;-64
2022/01/09 04:35:16;;;;;;;7.25;4.53;;;;;;;2.28;77.87;100418.02;1781048;80;25767;-65
2022/01/09 04:37:44;;;;;;;13.62;4.30;;;;;;;2.26;77.79;100415.92;1788612;79;25997;-65
2022/01/09 04:40:16;;;;;;;14.33;5.35;;;;;;;2.21;77.70;100422.83;1802220;79;25934;-64
2022/01/09 04:42:51;;;;;;;8.70;4.72;;;;;;;2.19;77.91;100412.77;1786183;79;28159;-65
2022/01/09 04:45:17;;;;;;;10.80;4.47;;;;;;;2.13;78.05;100408.68;1790564;79;25724;-63
2022/01/09 04:47:48;;;;;;;11.48;5.12;;;;;;;2.12;77.88;100405.64;1782210;79;25830;-64
2022/01/09 04:50:22;;;;;;;8.78;5.70;;;;;;;2.10;77.84;100409.34;1798285;79;25779;-64
2022/01/09 04:52:52;;;;;;;6.80;4.85;;;;;;;2.09;77.97;100403.64;1779147;79;25774;-64
2022/01/09 04:55:21;;;;;;;14.63;6.17;;;;;;;2.12;77.89;100407.45;1781986;79;27472;-65
2022/01/09 04:57:51;;;;;;;8.45;4.80;;;;;;;2.15;77.85;100405.47;1781168;80;25983;-65
2022/01/09 05:00:19;;;;;;;7.47;4.35;;;;;;;2.17;77.94;100403.59;1779589;79;25760;-65
2022/01/09 05:02:45;;;;;;;7.08;4.30;;;;;;;2.22;77.89;100407.30;1782932;79;25740;-65
2022/01/09 05:05:12;;;;;;;9.60;4.17;;;;;;;2.25;77.96;100400.45;1799355;79;25692;-65
2022/01/09 05:07:39;;;;;;;7.53;4.33;;;;;;;2.29;77.99;100396.69;1792712;79;27525;-65
2022/01/09 05:10:09;;;;;;;7.47;5.08;;;;;;;2.33;78.12;100387.57;1777106;79;27299;-66
2022/01/09 05:12:40;;;;;;;11.65;4.45;;;;;;;2.36;78.02;100394.52;1790248;79;25731;-65
2022/01/09 05:15:09;;;;;;;9.85;4.35;;;;;;;2.40;78.07;100391.20;1767621;79;26358;-65
2022/01/09 05:17:36;;;;;;;5.97;3.92;;;;;;;2.41;78.06;100392.43;1774498;79;25728;-66
2022/01/09 05:20:05;;;;;;;7.87;3.60;;;;;;;2.40;78.04;100385.41;1800076;79;27519;-65
2022/01/09 05:22:32;;;;;;;7.92;4.42;;;;;;;2.39;78.00;100386.84;1791684;79;25718;-64
2022/01/09 05:25:01;;;;;;;7.40;4.15;;;;;;;2.38;78.05;100393.94;1767922;79;25691;-65
2022/01/09 05:27:28;;;;;;;8.45;4.75;;;;;;;2.41;78.14;100383.14;1769840;79;25822;-65
2022/01/09 05:29:55;;;;;;;8.03;4.53;;;;;;;2.45;78.05;100378.49;1768000;81;25782;-65
2022/01/09 05:32:22;;;;;;;8.05;4.50;;;;;;;2.47;77.92;100369.97;1774187;79;27452;-65
2022/01/09 05:34:49;;;;;;;8.18;4.80;;;;;;;2.48;77.71;100367.70;1775989;79;25796;-65
2022/01/09 05:37:16;;;;;;;9.50;4.37;;;;;;;2.45;77.64;100363.44;1800639;79;25617;-64
2022/01/09 05:39:44;;;;;;;6.60;4.85;;;;;;;2.42;77.65;100352.98;1802684;79;25797;-65
2022/01/09 05:42:13;;;;;;;8.50;4.50;;;;;;;2.40;77.64;100343.42;1778230;79;25800;-65
2022/01/09 05:44:44;;;;;;;7.45;4.65;;;;;;;2.35;77.56;100343.21;1800381;79;28223;-65
2022/01/09 05:47:14;;;;;;;9.28;5.50;;;;;;;2.32;77.76;100348.73;1800089;79;25670;-65
2022/01/09 05:49:40;;;;;;;8.98;5.85;;;;;;;2.30;77.83;100344.44;1767638;81;25772;-65
2022/01/09 05:52:08;;;;;;;8.33;6.33;;;;;;;2.26;77.77;100337.14;1773043;79;25824;-65
2022/01/09 05:54:35;;;;;;;11.45;5.42;;;;;;;2.26;78.08;100337.62;1801078;79;25774;-64
2022/01/09 05:57:03;;;;;;;14.00;6.30;;;;;;;2.22;78.11;100331.66;1799919;79;28149;-65
2022/01/09 05:59:30;;;;;;;10.48;5.85;;;;;;;2.21;78.37;100337.03;1802299;79;25448;-64
2022/01/09 06:01:59;;;;;;;16.85;5.97;;;;;;;2.21;78.54;100339.69;1795697;79;25713;-65
2022/01/09 06:04:28;;;;;;;8.23;5.17;;;;;;;2.21;78.75;100336.58;1760735;79;25850;-64
2022/01/09 06:06:58;;;;;;;11.95;6.90;;;;;;;2.26;78.89;100340.28;1798652;79;25692;-65
2022/01/09 06:09:25;;;;;;;11.10;6.10;;;;;;;2.28;79.12;100335.73;1799117;79;27542;-65
2022/01/09 06:11:52;;;;;;;10.60;6.70;;;;;;;2.30;79.20;100328.52;1782609;79;25760;-65
2022/01/09 06:14:18;;;;;;;14.23;6.45;;;;;;;2.32;79.12;100332.80;1761462;81;25770;-66
2022/01/09 06:16:45;;;;;;;13.20;6.20;;;;;;;2.37;79.21;100331.65;1774357;79;25814;-64
2022/01/09 06:19:13;;;;;;;13.40;5.58;;;;;;;2.37;79.56;100329.87;1763241;79;25782;-65
2022/01/09 06:21:40;;;;;;;13.10;6.40;;;;;;;2.34;79.29;100324.25;1791282;79;27476;-64
2022/01/09 06:24:07;;;;;;;10.53;5.97;;;;;;;2.36;79.57;100329.48;1793763;79;25605;-65
2022/01/09 06:26:41;;;;;;;12.80;6.45;;;;;;;2.38;79.55;100336.02;1796678;79;25693;-64
2022/01/09 06:29:03;;;;;;;10.18;5.65;;;;;;;2.38;79.44;100336.02;1796549;79;27051;-65
2022/01/09 06:31:29;;;;;;;10.43;6.08;;;;;;;2.42;79.69;100338.39;1799669;79;25828;-65
2022/01/09 06:33:58;;;;;;;13.70;6.62;;;;;;;2.46;79.47;100327.10;1796578;79;28727;-65
2022/01/09 06:36:27;;;;;;;10.05;5.92;;;;;;;2.45;79.55;100322.73;1777968;79;25509;-65
2022/01/09 06:38:53;;;;;;;14.38;7.08;;;;;;;2.43;79.49;100321.52;1796935;79;25700;-65
2022/01/09 06:41:20;;;;;;;9.95;6.30;;;;;;;2.44;79.54;100319.24;1764561;79;26938;-65
2022/01/09 06:43:47;;;;;;;14.78;6.08;;;;;;;2.42;79.83;100319.80;1787130;79;25689;-65
2022/01/09 06:46:15;;;;;;;13.10;6.42;;;;;;;2.47;79.76;100321.69;1799186;79;27560;-64
2022/01/09 06:48:42;;;;;;;11.30;6.22;;;;;;;2.47;79.61;100308.41;1794035;79;25686;-64
2022/01/09 06:51:10;;;;;;;9.88;5.78;;;;;;;2.47;79.81;100314.21;1776371;79;25794;-64
2022/01/09 06:53:39;;;;;;;12.20;6.45;;;;;;;2.50;79.67;100307.39;1789873;79;25802;-64
2022/01/09 06:56:08;;;;;;;11.45;6.20;;;;;;;2.54;79.75;100308.05;1779175;79;25776;-65
2022/01/09 06:58:39;;;;;;;13.60;8.10;;;;;;;2.57;79.78;100297.22;1780733;79;28210;-64
2022/01/09 07:01:06;;;;;;;11.45;7.37;;;;;;;2.57;79.78;100293.23;1780698;79;25822;-64
2022/01/09 07:03:33;;;;;;;15.95;7.30;;;;;;;2.57;79.64;100290.12;1795361;79;25778;-64
2022/01/09 07:06:02;;;;;;;12.18;6.62;;;;;;;2.59;79.56;100300.64;1784659;79;25804;-64
2022/01/09 07:08:31;;;;;;;12.15;6.60;;;;;;;2.63;79.67;100290.21;1784379;79;26376;-65
2022/01/09 07:10:57;;;;;;;10.35;6.83;;;;;;;2.62;79.53;100292.00;1797120;79;29652;-65
2022/01/09 07:13:24;;;;;;;14.98;7.55;;;;;;;2.63;79.49;100288.88;1794180;79;25814;-66
2022/01/09 07:15:51;;;;;;;11.43;7.35;;;;;;;2.64;79.46;100278.64;1786769;79;25849;-65
2022/01/09 07:18:19;;;;;;;12.68;6.87;;;;;;;2.64;79.51;100282.62;1784686;80;25835;-64
2022/01/09 07:20:48;;;;;;;13.32;7.55;;;;;;;2.64;79.62;100285.28;1791558;79;25735;-65
2022/01/09 07:23:17;;;;;;;11.33;7.30;;;;;;;2.62;79.61;100287.17;1792545;78;27480;-65
2022/01/09 07:25:44;;;;;;;10.40;6.58;;;;;;;2.64;79.64;100292.76;1800252;79;26591;-64
2022/01/09 07:28:16;;;;;;;11.08;6.70;;;;;;;2.69;79.62;100292.47;1796725;79;25849;-65
2022/01/09 07:30:42;;;;;;;12.35;7.40;;;;;;;2.74;79.69;100289.03;1785333;79;25812;-65
2022/01/09 07:33:09;;;;;;;17.70;7.47;;;;;;;2.80;79.65;100291.32;1785911;79;25742;-65
2022/01/09 07:35:41;;;;;;;12.05;6.80;;;;;;;2.86;79.68;100294.06;1785964;79;28185;-67
2022/01/09 07:38:08;;;;;;;15.00;8.75;;;;;;;2.92;79.56;100306.95;1799848;79;25500;-64
2022/01/09 07:40:35;;;;;;;14.53;7.55;;;;;;;2.98;79.35;100301.72;1799726;79;25793;-64
2022/01/09 07:43:02;;;;;;;12.05;6.95;;;;;;;3.04;79.15;100303.12;1785521;79;26618;-65
2022/01/09 07:45:30;;;;;;;14.65;7.72;;;;;;;3.09;79.25;100299.69;1798257;79;25744;-65
2022/01/09 07:48:00;;;;;;;20.37;7.72;;;;;;;3.17;79.28;100296.05;1795359;79;27432;-66
2022/01/09 07:50:29;;;;;;;14.70;7.22;;;;;;;3.23;79.25;100298.78;1783938;80;25737;-65
2022/01/09 07:52:59;;;;;;;12.15;7.33;;;;;;;3.26;78.92;100299.92;1774379;80;25722;-65
2022/01/09 07:55:28;;;;;;;15.60;7.65;;;;;;;3.29;78.46;100297.05;1775572;80;25797;-66
2022/01/09 07:57:55;;;;;;;11.68;7.35;;;;;;;3.31;78.46;100299.13;1784544;80;25811;-65
2022/01/09 08:00:23;;;;;;;17.55;8.40;;;;;;;3.36;78.17;100294.34;1782847;80;27343;-66
2022/01/09 08:02:51;;;;;;;10.25;7.15;;;;;;;3.34;78.00;100295.41;1775096;80;26228;-65
2022/01/09 08:05:21;;;;;;;14.38;8.55;;;;;;;3.34;77.78;100288.30;1774918;79;25795;-65
2022/01/09 08:07:50;;;;;;;14.83;8.48;;;;;;;3.35;77.71;100289.14;1774932;80;25928;-66
2022/01/09 08:10:20;;;;;;;16.27;8.88;;;;;;;3.34;77.75;100279.00;1775209;80;26341;-66
2022/01/09 08:12:46;;;;;;;15.53;8.78;;;;;;;3.32;77.73;100284.05;1775232;80;28117;-66
2022/01/09 08:15:18;;;;;;;18.37;9.90;;;;;;;3.34;77.75;100286.10;1775063;80;25768;-65
2022/01/09 08:17:54;;;;;;;11.73;7.97;;;;;;;3.36;77.70;100277.55;1775425;80;25802;-64
2022/01/09 08:20:21;;;;;;;15.90;8.45;;;;;;;3.42;77.70;100274.02;1772878;80;25938;-65
2022/01/09 08:22:48;;;;;;;13.90;8.10;;;;;;;3.47;77.86;100266.20;1775278;80;25882;-65
2022/01/09 08:25:18;;;;;;;19.90;10.10;;;;;;;3.55;78.01;100262.54;1775092;80;27513;-65
2022/01/09 08:27:46;;;;;;;23.75;10.18;;;;;;;3.59;77.97;100259.57;1774610;80;25743;-65
2022/01/09 08:30:15;;;;;;;19.87;9.33;;;;;;;3.64;78.01;100253.10;1775004;80;25831;-64
2022/01/09 08:32:42;;;;;;;18.00;9.53;;;;;;;3.73;78.18;100252.47;1775322;80;25771;-65
2022/01/09 08:35:10;;;;;;;16.27;8.30;;;;;;;3.81;78.15;100243.98;1775047;80;25408;-65
2022/01/09 08:37:36;;;;;;;19.62;8.75;;;;;;;3.87;77.99;100239.06;1775244;80;27429;-65
2022/01/09 08:40:06;;;;;;;11.15;7.10;;;;;;;3.94;78.06;100246.15;1775092;80;25648;-65
2022/01/09 08:42:34;;;;;;;12.70;7.70;;;;;;;4.02;77.87;100234.98;1775500;80;25770;-66
2022/01/09 08:45:06;;;;;;;15.03;8.05;;;;;;;4.10;77.70;100235.30;1775424;80;26173;-65
2022/01/09 08:47:37;;;;;;;9.83;6.50;;;;;;;4.17;77.63;100240.55;1764253;80;26066;-66
2022/01/09 08:50:03;;;;;;;9.75;6.72;;;;;;;4.18;77.14;100230.28;1730933;81;28399;-66
2022/01/09 08:52:30;;;;;;;15.93;9.35;;;;;;;4.22;77.30;100224.25;1754457;80;25780;-65
2022/01/09 08:54:58;;;;;;;16.30;9.90;;;;;;;4.24;76.69;100214.35;1783639;80;25932;-65
2022/01/09 08:57:25;;;;;;;15.53;8.80;;;;;;;4.27;76.75;100211.45;1794325;79;26144;-65
2022/01/09 08:59:53;;;;;;;16.90;9.43;;;;;;;4.33;76.96;100216.36;1794293;80;25730;-65
2022/01/09 09:02:22;;;;;;;21.20;10.90;;;;;;;4.41;77.10;100213.62;1804329;79;27393;-65
2022/01/09 09:04:48;;;;;;;20.35;11.45;;;;;;;4.43;76.25;100207.22;1806016;79;25724;-65
2022/01/09 09:07:18;;;;;;;17.57;10.15;;;;;;;4.45;76.44;100207.96;1806321;79;25701;-65
2022/01/09 09:09:46;;;;;;;13.25;8.80;;;;;;;4.48;76.20;100206.39;1806170;79;25822;-65
2022/01/09 09:12:12;;;;;;;13.13;8.03;;;;;;;4.46;75.81;100203.47;1806317;79;25765;-65
2022/01/09 09:14:39;;;;;;;14.50;7.83;;;;;;;4.42;75.77;100200.19;1806298;79;28178;-64
2022/01/09 09:17:06;;;;;;;10.80;6.70;;;;;;;4.40;75.49;100199.44;1806099;79;25710;-64
2022/01/09 09:19:33;;;;;;;13.75;6.67;;;;;;;4.34;75.48;100199.42;1806265;79;25710;-65
2022/01/09 09:22:00;;;;;;;10.43;6.37;;;;;;;4.27;75.82;100201.30;1806696;79;26602;-65
2022/01/09 09:24:27;;;;;;;10.85;7.10;;;;;;;4.24;76.28;100206.36;1806270;79;25829;-65
2022/01/09 09:26:53;;;;;;;12.10;7.08;;;;;;;4.15;76.27;100207.86;1806211;79;27469;-66
2022/01/09 09:29:25;;;;;;;9.58;6.20;;;;;;;4.11;76.40;100211.70;1806146;79;25960;-65
2022/01/09 09:31:52;;;;;;;13.50;5.15;;;;;;;4.10;76.53;100206.47;1806035;79;25762;-65
2022/01/09 09:34:19;;;;;;;9.70;6.42;;;;;;;4.07;76.67;100204.42;1806094;79;25721;-65
2022/01/09 09:36:48;;;;;;;10.43;6.12;;;;;;;4.03;76.80;100206.08;1806830;79;25832;-65
2022/01/09 09:39:14;;;;;;;11.63;6.67;;;;;;;4.01;77.12;100207.98;1806663;79;28174;-65
2022/01/09 09:41:42;;;;;;;8.58;6.03;;;;;;;4.04;77.29;100207.75;1804879;79;25779;-66
2022/01/09 09:44:09;;;;;;;10.43;6.50;;;;;;;4.07;77.35;100201.77;1781893;80;25777;-65
2022/01/09 09:46:39;;;;;;;10.68;6.50;;;;;;;4.13;77.25;100207.59;1781816;80;25798;-65
2022/01/09 09:49:08;;;;;;;10.28;6.22;;;;;;;4.13;77.41;100208.44;1772560;78;25524;-65
2022/01/09 09:51:36;;;;;;;14.65;7.70;;;;;;;4.15;77.45;100198.53;1756229;81;28309;-66
2022/01/09 09:54:05;;;;;;;9.08;6.28;;;;;;;4.18;77.33;100194.80;1755926;81;25765;-65
2022/01/09 09:56:35;;;;;;;9.43;5.65;;;;;;;4.20;77.42;100193.75;1756246;81;25724;-65
2022/01/09 09:59:02;;;;;;;10.43;6.65;;;;;;;4.22;77.41;100189.64;1759637;80;25788;-65
2022/01/09 10:01:34;;;;;;;9.65;6.37;;;;;;;4.21;77.32;100194.59;1787653;78;25733;-65
2022/01/09 10:04:06;;;;;;;9.25;6.35;;;;;;;4.19;77.32;100185.86;1787280;80;27436;-64
2022/01/09 10:06:43;;;;;;;13.20;5.37;;;;;;;4.25;77.52;100185.90;1787382;80;25752;-64
2022/01/09 10:09:17;;;;;;;10.98;5.87;;;;;;;4.27;77.44;100189.31;1787483;80;25668;-63
2022/01/09 10:12:04;;;;;;;8.50;5.42;;;;;;;4.29;77.39;100185.57;1787578;80;26057;-64
2022/01/09 10:14:33;;;;;;;10.68;6.12;;;;;;;4.32;77.36;100184.03;1787762;80;25763;-64
2022/01/09 10:17:16;;;;;;;10.63;6.10;;;;;;;4.41;77.33;100193.65;1787393;80;27480;-63
2022/01/09 10:19:54;;;;;;;10.45;5.55;;;;;;;4.44;77.34;100186.78;1787670;80;25778;-64
2022/01/09 10:22:43;;;;;;;8.10;5.45;;;;;;;4.46;77.02;100186.16;1787650;80;25802;-64
2022/01/09 10:25:36;;;;;;;8.88;5.92;;;;;;;4.44;77.07;100184.11;1776356;80;25988;-63
2022/01/09 10:28:17;;;;;;;9.75;5.78;;;;;;;4.46;76.96;100173.71;1786317;80;25786;-64
2022/01/09 10:30:53;;;;;;;8.58;5.70;;;;;;;4.42;76.84;100173.55;1785616;80;28102;-64
2022/01/09 10:33:26;;;;;;;10.80;5.75;;;;;;;4.33;76.74;100172.42;1786572;80;25734;-64
2022/01/09 10:35:55;;;;;;;10.13;6.62;;;;;;;4.27;76.86;100166.68;1786960;79;25767;-64
2022/01/09 10:38:27;;;;;;;13.53;6.90;;;;;;;4.23;77.13;100170.88;1785315;80;26594;-64
2022/01/09 10:40:59;;;;;;;12.35;7.55;;;;;;;4.23;77.15;100167.38;1785064;80;43291;-65
2022/01/09 10:43:36;;;;;;;15.30;6.03;;;;;;;4.21;77.17;100168.80;1787056;80;28367;-64
2022/01/09 10:46:07;;;;;;;10.20;6.15;;;;;;;4.20;76.91;100163.59;1787218;80;25758;-63
2022/01/09 10:48:41;;;;;;;10.95;6.53;;;;;;;4.23;76.86;100156.23;1786743;79;25688;-63
2022/01/09 10:51:11;;;;;;;6.53;4.95;;;;;;;4.29;77.11;100156.28;1780770;79;25838;-63
2022/01/09 10:53:43;;;;;;;7.47;5.47;;;;;;;4.29;77.09;100154.11;1787592;80;25771;-64
2022/01/09 10:56:20;;;;;;;7.75;4.67;;;;;;;4.31;77.17;100142.38;1787496;80;27447;-64
2022/01/09 10:59:00;;;;;;;11.22;4.67;;;;;;;4.35;77.14;100142.52;1787257;80;25771;-64
2022/01/09 11:01:33;;;;;;;8.65;6.12;;;;;;;4.34;77.27;100133.31;1751285;81;25725;-63
2022/01/09 11:04:07;;;;;;;12.18;4.62;;;;;;;4.30;77.59;100140.67;1738779;82;25841;-63
2022/01/09 11:06:36;;;;;;;;;;;;;;;4.33;77.71;100132.48;1741340;82;25963;-64
2022/01/09 11:09:05;;;;;;;8.70;5.30;;;;;;;4.43;77.73;100126.48;1738302;82;27713;-64
2022/01/09 11:11:39;;;;;;;9.08;5.30;;;;;;;4.46;77.64;100116.91;1738613;82;25727;-63
2022/01/09 11:14:11;;;;;;;6.00;4.60;;;;;;;4.44;77.45;100118.37;1739165;82;25726;-64
2022/01/09 11:16:43;;;;;;;11.30;5.47;;;;;;;4.46;77.68;100115.58;1738473;82;25756;-63
2022/01/09 11:19:16;;;;;;;8.40;5.05;;;;;;;4.52;77.65;100113.32;1738617;82;25731;-64
2022/01/09 11:21:52;;;;;;;;;;;;;;;4.56;77.65;100123.27;1741363;82;27442;-63
2022/01/09 11:24:50;;;;;;;9.30;5.90;;;;;;;4.58;77.63;100125.80;1738791;82;25437;-64
2022/01/09 11:27:31;;;;;;;11.95;7.00;;;;;;;4.62;77.47;100120.14;1740874;80;25758;-64
2022/01/09 11:30:10;;;;;;;8.13;5.65;;;;;;;4.65;77.50;100121.25;1776837;79;25833;-64
2022/01/09 11:33:04;;;;;;;8.78;5.70;;;;;;;4.67;77.55;100119.80;1797404;79;25812;-63
2022/01/09 11:36:04;;;;;;;7.80;5.20;;;;;;;4.66;77.70;100112.30;1773315;79;27575;-64
2022/01/09 11:39:11;;;;;;;14.55;4.75;;;;;;;4.66;77.57;100115.45;1760456;80;25781;-64
2022/01/09 11:41:33;;;;;;;6.65;5.00;;;;;;;4.60;77.72;100110.10;1795308;79;25653;-62